sensor_id;sensor_type;location;lat;lon;timestamp;P1;durP1;ratioP1;P2;durP2;ratioP2
54241;SDS011;40156;51.080;17.082;2023-06-26T00:00:05;8.20;;;5.43;;
54241;SDS011;40156;51.080;17.082;2023-06-26T00:02:34;7.90;;;5.60;;
54241;SDS011;40156;51.080;17.082;2023-06-26T00:05:03;9.02;;;5.28;;
54241;SDS011;40156;51.080;17.082;2023-06-26T00:07:32;8.68;;;5.40;;
54241;SDS011;40156;51.080;17.082;2023-06-26T00:10:01;13.35;;;6.18;;
54241;SDS011;40156;51.080;17.082;2023-06-26T00:12:33;9.93;;;6.55;;
54241;SDS011;40156;51.080;17.082;2023-06-26T00:15:01;10.43;;;6.22;;
54241;SDS011;40156;51.080;17.082;2023-06-26T00:17:29;8.70;;;5.93;;
54241;SDS011;40156;51.080;17.082;2023-06-26T00:19:57;8.70;;;5.80;;
54241;SDS011;40156;51.080;17.082;2023-06-26T00:22:25;10.88;;;6.32;;
54241;SDS011;40156;51.080;17.082;2023-06-26T00:24:53;9.18;;;6.40;;
54241;SDS011;40156;51.080;17.082;2023-06-26T00:27:21;9.10;;;6.55;;
54241;SDS011;40156;51.080;17.082;2023-06-26T00:29:49;9.20;;;6.03;;
54241;SDS011;40156;51.080;17.082;2023-06-26T00:32:18;9.60;;;5.78;;
54241;SDS011;40156;51.080;17.082;2023-06-26T00:34:46;8.82;;;6.15;;
54241;SDS011;40156;51.080;17.082;2023-06-26T00:37:14;9.05;;;5.63;;
54241;SDS011;40156;51.080;17.082;2023-06-26T00:39:42;13.77;;;5.97;;
54241;SDS011;40156;51.080;17.082;2023-06-26T00:42:10;9.43;;;6.35;;
54241;SDS011;40156;51.080;17.082;2023-06-26T00:44:38;11.02;;;6.05;;
54241;SDS011;40156;51.080;17.082;2023-06-26T00:47:14;9.32;;;5.63;;
54241;SDS011;40156;51.080;17.082;2023-06-26T00:49:43;11.68;;;5.95;;
54241;SDS011;40156;51.080;17.082;2023-06-26T00:52:12;8.27;;;5.45;;
54241;SDS011;40156;51.080;17.082;2023-06-26T00:54:40;8.02;;;5.60;;
54241;SDS011;40156;51.080;17.082;2023-06-26T00:57:09;10.10;;;5.53;;
54241;SDS011;40156;51.080;17.082;2023-06-26T00:59:37;9.90;;;5.55;;
54241;SDS011;40156;51.080;17.082;2023-06-26T01:02:05;9.32;;;5.70;;
54241;SDS011;40156;51.080;17.082;2023-06-26T01:04:33;11.13;;;5.88;;
54241;SDS011;40156;51.080;17.082;2023-06-26T01:07:02;9.70;;;6.10;;
54241;SDS011;40156;51.080;17.082;2023-06-26T01:09:31;10.57;;;6.35;;
54241;SDS011;40156;51.080;17.082;2023-06-26T01:11:59;10.15;;;6.28;;
54241;SDS011;40156;51.080;17.082;2023-06-26T01:14:27;8.65;;;5.70;;
54241;SDS011;40156;51.080;17.082;2023-06-26T01:16:56;10.75;;;6.28;;
54241;SDS011;40156;51.080;17.082;2023-06-26T01:19:25;9.85;;;6.72;;
54241;SDS011;40156;51.080;17.082;2023-06-26T01:21:58;13.10;;;6.45;;
54241;SDS011;40156;51.080;17.082;2023-06-26T01:24:37;12.40;;;6.93;;
54241;SDS011;40156;51.080;17.082;2023-06-26T01:27:09;12.82;;;6.78;;
54241;SDS011;40156;51.080;17.082;2023-06-26T01:29:40;12.55;;;6.78;;
54241;SDS011;40156;51.080;17.082;2023-06-26T01:32:10;14.25;;;7.38;;
54241;SDS011;40156;51.080;17.082;2023-06-26T01:34:38;11.75;;;6.95;;
54241;SDS011;40156;51.080;17.082;2023-06-26T01:37:06;16.52;;;7.18;;
54241;SDS011;40156;51.080;17.082;2023-06-26T01:39:34;13.02;;;6.88;;
54241;SDS011;40156;51.080;17.082;2023-06-26T01:42:02;18.13;;;6.68;;
54241;SDS011;40156;51.080;17.082;2023-06-26T01:44:32;14.65;;;7.25;;
54241;SDS011;40156;51.080;17.082;2023-06-26T01:47:04;12.90;;;7.70;;
54241;SDS011;40156;51.080;17.082;2023-06-26T01:52:29;12.52;;;7.05;;
54241;SDS011;40156;51.080;17.082;2023-06-26T01:57:36;12.95;;;6.80;;
54241;SDS011;40156;51.080;17.082;2023-06-26T02:00:07;11.82;;;6.85;;
54241;SDS011;40156;51.080;17.082;2023-06-26T02:02:37;9.85;;;6.38;;
54241;SDS011;40156;51.080;17.082;2023-06-26T02:05:05;8.93;;;6.03;;
54241;SDS011;40156;51.080;17.082;2023-06-26T02:07:33;11.90;;;6.75;;
54241;SDS011;40156;51.080;17.082;2023-06-26T02:10:02;11.75;;;6.90;;
54241;SDS011;40156;51.080;17.082;2023-06-26T02:12:30;15.68;;;7.20;;
54241;SDS011;40156;51.080;17.082;2023-06-26T02:14:58;12.98;;;6.68;;
54241;SDS011;40156;51.080;17.082;2023-06-26T02:17:26;10.45;;;6.45;;
54241;SDS011;40156;51.080;17.082;2023-06-26T02:19:54;12.38;;;7.25;;
54241;SDS011;40156;51.080;17.082;2023-06-26T02:22:23;13.48;;;6.57;;
54241;SDS011;40156;51.080;17.082;2023-06-26T02:24:51;9.48;;;6.68;;
54241;SDS011;40156;51.080;17.082;2023-06-26T02:27:19;11.48;;;6.65;;
54241;SDS011;40156;51.080;17.082;2023-06-26T02:29:47;13.00;;;7.22;;
54241;SDS011;40156;51.080;17.082;2023-06-26T02:32:16;10.65;;;6.95;;
54241;SDS011;40156;51.080;17.082;2023-06-26T02:34:44;13.27;;;6.75;;
54241;SDS011;40156;51.080;17.082;2023-06-26T02:37:12;12.68;;;7.20;;
54241;SDS011;40156;51.080;17.082;2023-06-26T02:39:40;11.63;;;6.97;;
54241;SDS011;40156;51.080;17.082;2023-06-26T02:42:08;10.77;;;7.60;;
54241;SDS011;40156;51.080;17.082;2023-06-26T02:44:36;11.55;;;7.28;;
54241;SDS011;40156;51.080;17.082;2023-06-26T02:47:05;10.95;;;6.72;;
54241;SDS011;40156;51.080;17.082;2023-06-26T02:49:33;10.63;;;6.65;;
54241;SDS011;40156;51.080;17.082;2023-06-26T02:52:01;11.95;;;7.00;;
54241;SDS011;40156;51.080;17.082;2023-06-26T02:54:30;13.90;;;7.22;;
54241;SDS011;40156;51.080;17.082;2023-06-26T02:56:58;11.65;;;6.78;;
54241;SDS011;40156;51.080;17.082;2023-06-26T02:59:26;12.55;;;7.43;;
54241;SDS011;40156;51.080;17.082;2023-06-26T03:01:54;14.02;;;7.20;;
54241;SDS011;40156;51.080;17.082;2023-06-26T03:04:22;10.95;;;6.05;;
54241;SDS011;40156;51.080;17.082;2023-06-26T03:06:51;11.93;;;7.25;;
54241;SDS011;40156;51.080;17.082;2023-06-26T03:09:19;11.55;;;7.05;;
54241;SDS011;40156;51.080;17.082;2023-06-26T03:11:47;11.18;;;7.00;;
54241;SDS011;40156;51.080;17.082;2023-06-26T03:14:15;12.35;;;6.97;;
54241;SDS011;40156;51.080;17.082;2023-06-26T03:16:43;13.85;;;7.55;;
54241;SDS011;40156;51.080;17.082;2023-06-26T03:19:11;11.25;;;7.47;;
54241;SDS011;40156;51.080;17.082;2023-06-26T03:21:40;11.82;;;7.00;;
54241;SDS011;40156;51.080;17.082;2023-06-26T03:24:08;13.25;;;6.85;;
54241;SDS011;40156;51.080;17.082;2023-06-26T03:26:36;11.18;;;7.00;;
54241;SDS011;40156;51.080;17.082;2023-06-26T03:29:04;14.57;;;7.75;;
54241;SDS011;40156;51.080;17.082;2023-06-26T03:31:32;13.57;;;6.50;;
54241;SDS011;40156;51.080;17.082;2023-06-26T03:34:00;16.98;;;7.22;;
54241;SDS011;40156;51.080;17.082;2023-06-26T03:36:29;12.50;;;6.80;;
54241;SDS011;40156;51.080;17.082;2023-06-26T03:38:57;13.70;;;7.07;;
54241;SDS011;40156;51.080;17.082;2023-06-26T03:41:25;8.45;;;6.22;;
54241;SDS011;40156;51.080;17.082;2023-06-26T03:43:53;11.65;;;6.18;;
54241;SDS011;40156;51.080;17.082;2023-06-26T03:46:21;14.00;;;6.60;;
54241;SDS011;40156;51.080;17.082;2023-06-26T03:48:50;11.23;;;6.90;;
54241;SDS011;40156;51.080;17.082;2023-06-26T03:51:18;12.48;;;6.72;;
54241;SDS011;40156;51.080;17.082;2023-06-26T03:53:46;10.20;;;6.90;;
54241;SDS011;40156;51.080;17.082;2023-06-26T03:56:14;12.80;;;6.57;;
54241;SDS011;40156;51.080;17.082;2023-06-26T03:58:42;8.52;;;5.90;;
54241;SDS011;40156;51.080;17.082;2023-06-26T04:01:11;9.60;;;6.60;;
54241;SDS011;40156;51.080;17.082;2023-06-26T04:03:39;11.60;;;5.50;;
54241;SDS011;40156;51.080;17.082;2023-06-26T04:06:07;13.27;;;5.97;;
54241;SDS011;40156;51.080;17.082;2023-06-26T04:08:35;9.60;;;5.38;;
54241;SDS011;40156;51.080;17.082;2023-06-26T04:11:03;11.68;;;5.75;;
54241;SDS011;40156;51.080;17.082;2023-06-26T04:13:31;9.55;;;5.32;;
54241;SDS011;40156;51.080;17.082;2023-06-26T04:16:00;9.90;;;5.65;;
54241;SDS011;40156;51.080;17.082;2023-06-26T04:18:28;9.30;;;5.70;;
54241;SDS011;40156;51.080;17.082;2023-06-26T04:21:12;10.38;;;6.15;;
54241;SDS011;40156;51.080;17.082;2023-06-26T04:23:40;11.63;;;6.00;;
54241;SDS011;40156;51.080;17.082;2023-06-26T04:26:09;10.40;;;6.03;;
54241;SDS011;40156;51.080;17.082;2023-06-26T04:28:37;10.90;;;5.72;;
54241;SDS011;40156;51.080;17.082;2023-06-26T04:31:05;11.30;;;5.75;;
54241;SDS011;40156;51.080;17.082;2023-06-26T04:33:33;8.35;;;5.47;;
54241;SDS011;40156;51.080;17.082;2023-06-26T04:36:03;9.27;;;5.90;;
54241;SDS011;40156;51.080;17.082;2023-06-26T04:38:32;8.65;;;5.68;;
54241;SDS011;40156;51.080;17.082;2023-06-26T04:41:01;13.18;;;6.10;;
54241;SDS011;40156;51.080;17.082;2023-06-26T04:43:29;18.83;;;6.45;;
54241;SDS011;40156;51.080;17.082;2023-06-26T04:45:57;12.82;;;5.80;;
54241;SDS011;40156;51.080;17.082;2023-06-26T04:48:26;10.30;;;5.97;;
54241;SDS011;40156;51.080;17.082;2023-06-26T04:50:54;12.30;;;6.72;;
54241;SDS011;40156;51.080;17.082;2023-06-26T04:53:23;8.43;;;6.00;;
54241;SDS011;40156;51.080;17.082;2023-06-26T04:55:51;10.63;;;6.53;;
54241;SDS011;40156;51.080;17.082;2023-06-26T04:58:20;7.85;;;5.90;;
54241;SDS011;40156;51.080;17.082;2023-06-26T05:00:48;13.40;;;6.40;;
54241;SDS011;40156;51.080;17.082;2023-06-26T05:03:17;11.27;;;6.28;;
54241;SDS011;40156;51.080;17.082;2023-06-26T05:05:45;8.95;;;5.47;;
54241;SDS011;40156;51.080;17.082;2023-06-26T05:10:42;7.75;;;5.80;;
54241;SDS011;40156;51.080;17.082;2023-06-26T05:13:10;9.35;;;5.55;;
54241;SDS011;40156;51.080;17.082;2023-06-26T05:15:39;6.85;;;4.40;;
54241;SDS011;40156;51.080;17.082;2023-06-26T05:18:07;9.75;;;4.80;;
54241;SDS011;40156;51.080;17.082;2023-06-26T05:20:36;9.57;;;4.60;;
54241;SDS011;40156;51.080;17.082;2023-06-26T05:23:04;16.98;;;4.55;;
54241;SDS011;40156;51.080;17.082;2023-06-26T05:25:33;6.32;;;4.35;;
54241;SDS011;40156;51.080;17.082;2023-06-26T05:28:01;6.82;;;4.38;;
54241;SDS011;40156;51.080;17.082;2023-06-26T05:30:30;8.30;;;4.32;;
54241;SDS011;40156;51.080;17.082;2023-06-26T05:32:59;6.63;;;4.57;;
54241;SDS011;40156;51.080;17.082;2023-06-26T05:35:28;6.45;;;4.28;;
54241;SDS011;40156;51.080;17.082;2023-06-26T05:37:57;9.05;;;5.15;;
54241;SDS011;40156;51.080;17.082;2023-06-26T05:40:26;5.93;;;4.22;;
54241;SDS011;40156;51.080;17.082;2023-06-26T05:42:54;5.82;;;4.50;;
54241;SDS011;40156;51.080;17.082;2023-06-26T05:45:23;6.03;;;4.38;;
54241;SDS011;40156;51.080;17.082;2023-06-26T05:47:51;9.05;;;4.63;;
54241;SDS011;40156;51.080;17.082;2023-06-26T05:50:19;6.93;;;4.55;;
54241;SDS011;40156;51.080;17.082;2023-06-26T05:52:47;8.30;;;4.90;;
54241;SDS011;40156;51.080;17.082;2023-06-26T05:55:16;10.55;;;5.78;;
54241;SDS011;40156;51.080;17.082;2023-06-26T05:57:45;7.97;;;4.88;;
54241;SDS011;40156;51.080;17.082;2023-06-26T06:00:14;8.00;;;4.72;;
54241;SDS011;40156;51.080;17.082;2023-06-26T06:02:42;6.68;;;5.00;;
54241;SDS011;40156;51.080;17.082;2023-06-26T06:05:11;8.88;;;4.90;;
54241;SDS011;40156;51.080;17.082;2023-06-26T06:07:39;8.00;;;5.15;;
54241;SDS011;40156;51.080;17.082;2023-06-26T06:10:07;7.95;;;4.53;;
54241;SDS011;40156;51.080;17.082;2023-06-26T06:12:35;7.53;;;4.50;;
54241;SDS011;40156;51.080;17.082;2023-06-26T06:15:04;10.52;;;4.95;;
54241;SDS011;40156;51.080;17.082;2023-06-26T06:17:33;8.18;;;4.57;;
54241;SDS011;40156;51.080;17.082;2023-06-26T06:20:01;7.25;;;4.72;;
54241;SDS011;40156;51.080;17.082;2023-06-26T06:22:30;6.63;;;4.72;;
54241;SDS011;40156;51.080;17.082;2023-06-26T06:24:58;7.75;;;4.68;;
54241;SDS011;40156;51.080;17.082;2023-06-26T06:27:26;7.68;;;4.43;;
54241;SDS011;40156;51.080;17.082;2023-06-26T06:29:55;6.63;;;4.40;;
54241;SDS011;40156;51.080;17.082;2023-06-26T06:32:23;8.13;;;4.85;;
54241;SDS011;40156;51.080;17.082;2023-06-26T06:34:51;9.38;;;4.60;;
54241;SDS011;40156;51.080;17.082;2023-06-26T06:37:19;9.18;;;4.28;;
54241;SDS011;40156;51.080;17.082;2023-06-26T06:39:48;9.23;;;4.07;;
54241;SDS011;40156;51.080;17.082;2023-06-26T06:42:15;7.25;;;4.15;;
54241;SDS011;40156;51.080;17.082;2023-06-26T06:44:44;7.20;;;4.55;;
54241;SDS011;40156;51.080;17.082;2023-06-26T06:47:12;8.70;;;4.53;;
54241;SDS011;40156;51.080;17.082;2023-06-26T06:49:40;8.35;;;3.90;;
54241;SDS011;40156;51.080;17.082;2023-06-26T06:52:08;6.07;;;3.95;;
54241;SDS011;40156;51.080;17.082;2023-06-26T06:55:11;5.25;;;3.75;;
54241;SDS011;40156;51.080;17.082;2023-06-26T06:57:32;4.32;;;3.80;;
54241;SDS011;40156;51.080;17.082;2023-06-26T07:00:01;5.00;;;3.90;;
54241;SDS011;40156;51.080;17.082;2023-06-26T07:02:30;7.22;;;3.65;;
54241;SDS011;40156;51.080;17.082;2023-06-26T07:04:58;6.53;;;3.85;;
54241;SDS011;40156;51.080;17.082;2023-06-26T07:07:28;5.03;;;3.60;;
54241;SDS011;40156;51.080;17.082;2023-06-26T07:10:01;4.63;;;3.40;;
54241;SDS011;40156;51.080;17.082;2023-06-26T07:12:39;5.00;;;3.60;;
54241;SDS011;40156;51.080;17.082;2023-06-26T07:15:08;5.28;;;3.33;;
54241;SDS011;40156;51.080;17.082;2023-06-26T07:17:36;7.18;;;3.90;;
54241;SDS011;40156;51.080;17.082;2023-06-26T07:20:04;5.13;;;3.15;;
54241;SDS011;40156;51.080;17.082;2023-06-26T07:22:34;6.53;;;3.28;;
54241;SDS011;40156;51.080;17.082;2023-06-26T07:25:02;5.18;;;3.78;;
54241;SDS011;40156;51.080;17.082;2023-06-26T07:27:31;4.05;;;3.65;;
54241;SDS011;40156;51.080;17.082;2023-06-26T07:29:59;3.90;;;3.10;;
54241;SDS011;40156;51.080;17.082;2023-06-26T07:32:27;6.45;;;3.55;;
54241;SDS011;40156;51.080;17.082;2023-06-26T07:34:56;5.22;;;3.55;;
54241;SDS011;40156;51.080;17.082;2023-06-26T07:37:24;6.15;;;3.67;;
54241;SDS011;40156;51.080;17.082;2023-06-26T07:39:52;7.30;;;4.00;;
54241;SDS011;40156;51.080;17.082;2023-06-26T07:42:20;7.35;;;3.72;;
54241;SDS011;40156;51.080;17.082;2023-06-26T07:44:49;6.90;;;3.78;;
54241;SDS011;40156;51.080;17.082;2023-06-26T07:47:17;5.18;;;3.30;;
54241;SDS011;40156;51.080;17.082;2023-06-26T07:49:45;4.72;;;3.25;;
54241;SDS011;40156;51.080;17.082;2023-06-26T07:52:14;5.32;;;3.30;;
54241;SDS011;40156;51.080;17.082;2023-06-26T07:54:43;6.65;;;3.35;;
54241;SDS011;40156;51.080;17.082;2023-06-26T07:57:11;4.90;;;3.20;;
54241;SDS011;40156;51.080;17.082;2023-06-26T07:59:39;5.60;;;3.80;;
54241;SDS011;40156;51.080;17.082;2023-06-26T08:02:07;4.63;;;3.38;;
54241;SDS011;40156;51.080;17.082;2023-06-26T08:04:36;3.72;;;3.35;;
54241;SDS011;40156;51.080;17.082;2023-06-26T08:07:04;8.48;;;3.45;;
54241;SDS011;40156;51.080;17.082;2023-06-26T08:09:33;4.45;;;3.40;;
54241;SDS011;40156;51.080;17.082;2023-06-26T08:12:01;4.32;;;3.33;;
54241;SDS011;40156;51.080;17.082;2023-06-26T08:14:29;4.55;;;3.50;;
54241;SDS011;40156;51.080;17.082;2023-06-26T08:16:57;4.07;;;3.40;;
54241;SDS011;40156;51.080;17.082;2023-06-26T08:19:25;5.32;;;3.40;;
54241;SDS011;40156;51.080;17.082;2023-06-26T08:21:53;2.70;;;2.50;;
54241;SDS011;40156;51.080;17.082;2023-06-26T08:24:22;4.50;;;3.05;;
54241;SDS011;40156;51.080;17.082;2023-06-26T08:26:50;6.95;;;3.78;;
54241;SDS011;40156;51.080;17.082;2023-06-26T08:29:18;3.20;;;2.90;;
54241;SDS011;40156;51.080;17.082;2023-06-26T08:31:46;3.97;;;3.50;;
54241;SDS011;40156;51.080;17.082;2023-06-26T08:34:14;4.38;;;3.35;;
54241;SDS011;40156;51.080;17.082;2023-06-26T08:36:42;4.20;;;3.15;;
54241;SDS011;40156;51.080;17.082;2023-06-26T08:39:11;3.45;;;3.15;;
54241;SDS011;40156;51.080;17.082;2023-06-26T08:41:39;4.43;;;3.40;;
54241;SDS011;40156;51.080;17.082;2023-06-26T08:44:07;5.20;;;2.80;;
54241;SDS011;40156;51.080;17.082;2023-06-26T08:46:35;4.20;;;3.63;;
54241;SDS011;40156;51.080;17.082;2023-06-26T08:49:25;5.35;;;3.05;;
54241;SDS011;40156;51.080;17.082;2023-06-26T08:52:02;3.63;;;3.22;;
54241;SDS011;40156;51.080;17.082;2023-06-26T08:54:42;4.75;;;3.20;;
54241;SDS011;40156;51.080;17.082;2023-06-26T08:57:14;6.80;;;3.47;;
54241;SDS011;40156;51.080;17.082;2023-06-26T08:59:46;4.75;;;3.08;;
54241;SDS011;40156;51.080;17.082;2023-06-26T09:02:15;4.60;;;2.88;;
54241;SDS011;40156;51.080;17.082;2023-06-26T09:04:44;5.90;;;2.83;;
54241;SDS011;40156;51.080;17.082;2023-06-26T09:07:12;4.32;;;2.80;;
54241;SDS011;40156;51.080;17.082;2023-06-26T09:09:40;3.20;;;2.90;;
54241;SDS011;40156;51.080;17.082;2023-06-26T09:12:08;3.60;;;2.90;;
54241;SDS011;40156;51.080;17.082;2023-06-26T09:14:37;3.17;;;2.88;;
54241;SDS011;40156;51.080;17.082;2023-06-26T09:17:05;3.63;;;3.20;;
54241;SDS011;40156;51.080;17.082;2023-06-26T09:19:36;3.53;;;2.80;;
54241;SDS011;40156;51.080;17.082;2023-06-26T09:22:10;5.40;;;3.65;;
54241;SDS011;40156;51.080;17.082;2023-06-26T09:24:41;3.53;;;2.83;;
54241;SDS011;40156;51.080;17.082;2023-06-26T09:27:11;3.38;;;2.90;;
54241;SDS011;40156;51.080;17.082;2023-06-26T09:29:40;3.50;;;3.20;;
54241;SDS011;40156;51.080;17.082;2023-06-26T09:32:09;3.17;;;2.85;;
54241;SDS011;40156;51.080;17.082;2023-06-26T09:34:40;3.47;;;2.95;;
54241;SDS011;40156;51.080;17.082;2023-06-26T09:37:13;3.30;;;2.95;;
54241;SDS011;40156;51.080;17.082;2023-06-26T09:39:42;3.63;;;3.10;;
54241;SDS011;40156;51.080;17.082;2023-06-26T09:42:13;3.22;;;2.88;;
54241;SDS011;40156;51.080;17.082;2023-06-26T09:44:44;5.68;;;2.65;;
54241;SDS011;40156;51.080;17.082;2023-06-26T09:47:18;3.13;;;2.83;;
54241;SDS011;40156;51.080;17.082;2023-06-26T09:49:47;3.85;;;2.95;;
54241;SDS011;40156;51.080;17.082;2023-06-26T09:52:16;3.40;;;3.00;;
54241;SDS011;40156;51.080;17.082;2023-06-26T09:54:45;3.42;;;3.13;;
54241;SDS011;40156;51.080;17.082;2023-06-26T09:57:17;3.13;;;2.80;;
54241;SDS011;40156;51.080;17.082;2023-06-26T09:59:46;4.20;;;2.95;;
54241;SDS011;40156;51.080;17.082;2023-06-26T10:02:15;4.05;;;3.10;;
54241;SDS011;40156;51.080;17.082;2023-06-26T10:04:43;5.45;;;2.97;;
54241;SDS011;40156;51.080;17.082;2023-06-26T10:07:11;3.20;;;2.78;;
54241;SDS011;40156;51.080;17.082;2023-06-26T10:09:41;3.55;;;2.72;;
54241;SDS011;40156;51.080;17.082;2023-06-26T10:12:20;4.60;;;3.15;;
54241;SDS011;40156;51.080;17.082;2023-06-26T10:14:56;5.22;;;2.83;;
54241;SDS011;40156;51.080;17.082;2023-06-26T10:17:30;3.67;;;2.75;;
54241;SDS011;40156;51.080;17.082;2023-06-26T10:20:02;3.72;;;2.95;;
54241;SDS011;40156;51.080;17.082;2023-06-26T10:22:34;4.15;;;3.08;;
54241;SDS011;40156;51.080;17.082;2023-06-26T10:25:07;3.85;;;2.67;;
54241;SDS011;40156;51.080;17.082;2023-06-26T10:27:42;6.97;;;2.88;;
54241;SDS011;40156;51.080;17.082;2023-06-26T10:30:14;4.10;;;2.78;;
54241;SDS011;40156;51.080;17.082;2023-06-26T10:32:47;3.00;;;2.70;;
54241;SDS011;40156;51.080;17.082;2023-06-26T10:35:15;3.75;;;3.00;;
54241;SDS011;40156;51.080;17.082;2023-06-26T10:37:45;4.07;;;3.00;;
54241;SDS011;40156;51.080;17.082;2023-06-26T10:40:28;4.05;;;2.92;;
54241;SDS011;40156;51.080;17.082;2023-06-26T10:43:08;4.15;;;3.20;;
54241;SDS011;40156;51.080;17.082;2023-06-26T10:45:37;3.60;;;2.85;;
54241;SDS011;40156;51.080;17.082;2023-06-26T10:48:12;5.43;;;3.05;;
54241;SDS011;40156;51.080;17.082;2023-06-26T10:50:42;3.58;;;2.80;;
54241;SDS011;40156;51.080;17.082;2023-06-26T10:53:11;4.85;;;2.85;;
54241;SDS011;40156;51.080;17.082;2023-06-26T10:55:49;6.28;;;2.85;;
54241;SDS011;40156;51.080;17.082;2023-06-26T11:03:48;3.47;;;2.67;;
54241;SDS011;40156;51.080;17.082;2023-06-26T11:06:25;3.50;;;2.83;;
54241;SDS011;40156;51.080;17.082;2023-06-26T11:09:00;6.32;;;3.08;;
54241;SDS011;40156;51.080;17.082;2023-06-26T11:14:19;3.63;;;2.70;;
54241;SDS011;40156;51.080;17.082;2023-06-26T11:16:48;5.07;;;2.65;;
54241;SDS011;40156;51.080;17.082;2023-06-26T11:19:17;4.25;;;2.97;;
54241;SDS011;40156;51.080;17.082;2023-06-26T11:21:46;5.43;;;2.88;;
54241;SDS011;40156;51.080;17.082;2023-06-26T11:24:15;3.65;;;2.75;;
54241;SDS011;40156;51.080;17.082;2023-06-26T11:26:44;4.03;;;2.63;;
54241;SDS011;40156;51.080;17.082;2023-06-26T11:29:13;5.60;;;3.03;;
54241;SDS011;40156;51.080;17.082;2023-06-26T11:31:41;5.32;;;2.45;;
54241;SDS011;40156;51.080;17.082;2023-06-26T11:34:10;3.13;;;2.72;;
54241;SDS011;40156;51.080;17.082;2023-06-26T11:36:43;3.53;;;2.58;;
54241;SDS011;40156;51.080;17.082;2023-06-26T11:41:39;3.63;;;2.42;;
54241;SDS011;40156;51.080;17.082;2023-06-26T11:44:09;6.85;;;2.85;;
54241;SDS011;40156;51.080;17.082;2023-06-26T11:46:37;5.82;;;3.13;;
54241;SDS011;40156;51.080;17.082;2023-06-26T11:49:06;5.10;;;2.70;;
54241;SDS011;40156;51.080;17.082;2023-06-26T11:51:35;3.38;;;2.72;;
54241;SDS011;40156;51.080;17.082;2023-06-26T11:54:03;4.57;;;3.03;;
54241;SDS011;40156;51.080;17.082;2023-06-26T11:56:32;4.05;;;2.67;;
54241;SDS011;40156;51.080;17.082;2023-06-26T11:59:05;4.60;;;2.70;;
54241;SDS011;40156;51.080;17.082;2023-06-26T12:01:38;3.58;;;2.70;;
54241;SDS011;40156;51.080;17.082;2023-06-26T12:04:09;3.10;;;2.63;;
54241;SDS011;40156;51.080;17.082;2023-06-26T12:06:40;6.45;;;2.72;;
54241;SDS011;40156;51.080;17.082;2023-06-26T12:09:11;3.45;;;2.83;;
54241;SDS011;40156;51.080;17.082;2023-06-26T12:11:41;3.53;;;2.70;;
54241;SDS011;40156;51.080;17.082;2023-06-26T12:14:11;3.00;;;2.50;;
54241;SDS011;40156;51.080;17.082;2023-06-26T12:16:40;3.08;;;2.60;;
54241;SDS011;40156;51.080;17.082;2023-06-26T12:19:08;3.97;;;2.97;;
54241;SDS011;40156;51.080;17.082;2023-06-26T12:24:05;4.30;;;2.22;;
54241;SDS011;40156;51.080;17.082;2023-06-26T12:26:35;3.15;;;2.60;;
54241;SDS011;40156;51.080;17.082;2023-06-26T12:29:07;2.95;;;2.55;;
54241;SDS011;40156;51.080;17.082;2023-06-26T12:31:39;2.97;;;2.50;;
54241;SDS011;40156;51.080;17.082;2023-06-26T12:34:12;3.42;;;2.70;;
54241;SDS011;40156;51.080;17.082;2023-06-26T12:36:41;3.88;;;2.85;;
54241;SDS011;40156;51.080;17.082;2023-06-26T12:39:10;3.40;;;2.75;;
54241;SDS011;40156;51.080;17.082;2023-06-26T12:41:45;3.17;;;2.60;;
54241;SDS011;40156;51.080;17.082;2023-06-26T12:44:21;3.10;;;2.70;;
54241;SDS011;40156;51.080;17.082;2023-06-26T12:46:59;2.88;;;2.58;;
54241;SDS011;40156;51.080;17.082;2023-06-26T12:49:29;3.10;;;2.40;;
54241;SDS011;40156;51.080;17.082;2023-06-26T12:51:59;4.25;;;2.55;;
54241;SDS011;40156;51.080;17.082;2023-06-26T12:54:28;4.07;;;2.58;;
54241;SDS011;40156;51.080;17.082;2023-06-26T12:56:56;5.13;;;2.47;;
54241;SDS011;40156;51.080;17.082;2023-06-26T12:59:25;3.28;;;2.80;;
54241;SDS011;40156;51.080;17.082;2023-06-26T13:01:53;5.05;;;2.50;;
54241;SDS011;40156;51.080;17.082;2023-06-26T13:04:21;4.68;;;2.70;;
54241;SDS011;40156;51.080;17.082;2023-06-26T13:06:49;3.40;;;2.55;;
54241;SDS011;40156;51.080;17.082;2023-06-26T13:09:18;3.22;;;2.55;;
54241;SDS011;40156;51.080;17.082;2023-06-26T13:11:46;3.80;;;2.70;;
54241;SDS011;40156;51.080;17.082;2023-06-26T13:14:14;3.60;;;2.60;;
54241;SDS011;40156;51.080;17.082;2023-06-26T13:16:42;2.80;;;2.53;;
54241;SDS011;40156;51.080;17.082;2023-06-26T13:19:11;2.30;;;2.10;;
54241;SDS011;40156;51.080;17.082;2023-06-26T13:21:39;3.80;;;2.30;;
54241;SDS011;40156;51.080;17.082;2023-06-26T13:24:07;4.18;;;2.55;;
54241;SDS011;40156;51.080;17.082;2023-06-26T13:26:35;2.78;;;2.40;;
54241;SDS011;40156;51.080;17.082;2023-06-26T13:29:05;3.47;;;2.70;;
54241;SDS011;40156;51.080;17.082;2023-06-26T13:31:33;2.65;;;2.33;;
54241;SDS011;40156;51.080;17.082;2023-06-26T13:34:02;2.80;;;2.45;;
54241;SDS011;40156;51.080;17.082;2023-06-26T13:36:30;5.05;;;2.65;;
54241;SDS011;40156;51.080;17.082;2023-06-26T13:38:58;2.72;;;2.38;;
54241;SDS011;40156;51.080;17.082;2023-06-26T13:41:27;2.40;;;2.20;;
54241;SDS011;40156;51.080;17.082;2023-06-26T13:43:55;4.57;;;2.70;;
54241;SDS011;40156;51.080;17.082;2023-06-26T13:46:26;2.55;;;2.28;;
54241;SDS011;40156;51.080;17.082;2023-06-26T13:48:54;2.83;;;2.25;;
54241;SDS011;40156;51.080;17.082;2023-06-26T13:51:22;2.67;;;2.30;;
54241;SDS011;40156;51.080;17.082;2023-06-26T13:53:50;3.45;;;2.40;;
54241;SDS011;40156;51.080;17.082;2023-06-26T13:56:18;4.22;;;2.50;;
54241;SDS011;40156;51.080;17.082;2023-06-26T13:58:46;2.75;;;2.42;;
54241;SDS011;40156;51.080;17.082;2023-06-26T14:01:14;3.70;;;2.45;;
54241;SDS011;40156;51.080;17.082;2023-06-26T14:03:43;3.10;;;2.13;;
54241;SDS011;40156;51.080;17.082;2023-06-26T14:06:11;2.78;;;2.17;;
54241;SDS011;40156;51.080;17.082;2023-06-26T14:08:39;5.30;;;2.60;;
54241;SDS011;40156;51.080;17.082;2023-06-26T14:11:07;3.60;;;2.65;;
54241;SDS011;40156;51.080;17.082;2023-06-26T14:13:35;5.68;;;2.47;;
54241;SDS011;40156;51.080;17.082;2023-06-26T14:16:03;3.85;;;2.58;;
54241;SDS011;40156;51.080;17.082;2023-06-26T14:18:32;3.50;;;2.22;;
54241;SDS011;40156;51.080;17.082;2023-06-26T14:21:00;2.60;;;2.38;;
54241;SDS011;40156;51.080;17.082;2023-06-26T14:23:28;3.22;;;2.45;;
54241;SDS011;40156;51.080;17.082;2023-06-26T14:25:56;3.80;;;2.50;;
54241;SDS011;40156;51.080;17.082;2023-06-26T14:28:24;4.55;;;2.30;;
54241;SDS011;40156;51.080;17.082;2023-06-26T14:30:52;3.83;;;2.33;;
54241;SDS011;40156;51.080;17.082;2023-06-26T14:33:21;3.42;;;2.33;;
54241;SDS011;40156;51.080;17.082;2023-06-26T14:35:49;3.38;;;2.55;;
54241;SDS011;40156;51.080;17.082;2023-06-26T14:38:18;2.40;;;2.05;;
54241;SDS011;40156;51.080;17.082;2023-06-26T14:40:46;2.92;;;2.40;;
54241;SDS011;40156;51.080;17.082;2023-06-26T14:43:14;5.35;;;2.50;;
54241;SDS011;40156;51.080;17.082;2023-06-26T14:45:42;2.97;;;2.50;;
54241;SDS011;40156;51.080;17.082;2023-06-26T14:48:10;5.15;;;2.50;;
54241;SDS011;40156;51.080;17.082;2023-06-26T14:50:38;2.30;;;2.10;;
54241;SDS011;40156;51.080;17.082;2023-06-26T14:53:07;5.88;;;2.53;;
54241;SDS011;40156;51.080;17.082;2023-06-26T14:55:35;5.30;;;2.67;;
54241;SDS011;40156;51.080;17.082;2023-06-26T14:58:03;3.85;;;2.65;;
54241;SDS011;40156;51.080;17.082;2023-06-26T15:00:31;3.28;;;2.88;;
54241;SDS011;40156;51.080;17.082;2023-06-26T15:02:59;5.47;;;2.63;;